Time;durP1;ratioP1;P1;durP2;ratioP2;P2;SDS_P1;SDS_P2;PMS_P1;PMS_P2;Temp;Humidity;BMP_temperature;BMP_pressure;BME280_temperature;BME280_humidity;BME280_pressure;Samples;Min_cycle;Max_cycle;Signal;HPM_P1;HPM_P2
2021/05/03 00:00:59;;;;;;;6.55;3.00;;;;;;;;;;5074524;28;20017;-82
2021/05/03 00:03:25;;;;;;;6.55;3.53;;;;;;;;;;5046337;28;20383;-82
2021/05/03 00:05:56;;;;;;;6.50;3.33;;;;;;;;;;5069938;28;20029;-81
2021/05/03 00:08:23;;;;;;;7.05;3.13;;;;;;;;;;5042354;28;20040;-82
2021/05/03 00:10:49;;;;;;;8.52;3.15;;;;;;;;;;5067049;28;20027;-81
2021/05/03 00:13:15;;;;;;;7.72;3.15;;;;;;;;;;5040376;28;20536;-81
2021/05/03 00:15:41;;;;;;;5.45;3.03;;;;;;;;;;5055742;28;20119;-81
2021/05/03 00:18:07;;;;;;;6.05;3.40;;;;;;;;;;5056464;28;20396;-82
2021/05/03 00:20:33;;;;;;;7.15;2.92;;;;;;;;;;5055831;28;20024;-81
2021/05/03 00:22:59;;;;;;;3.85;2.85;;;;;;;;;;5070059;28;20020;-82
2021/05/03 00:25:25;;;;;;;7.75;3.65;;;;;;;;;;5058666;28;20420;-82
2021/05/03 00:27:51;;;;;;;6.57;2.78;;;;;;;;;;5052197;28;20029;-82
2021/05/03 00:30:17;;;;;;;6.35;3.05;;;;;;;;;;5073417;28;20480;-82
2021/05/03 00:32:44;;;;;;;7.10;2.58;;;;;;;;;;5061491;28;20480;-82
2021/05/03 00:35:10;;;;;;;9.68;3.13;;;;;;;;;;5068636;28;20515;-82
2021/05/03 00:37:36;;;;;;;9.48;3.03;;;;;;;;;;5053060;28;20114;-82
2021/05/03 00:40:03;;;;;;;7.53;3.20;;;;;;;;;;5054879;28;20434;-82
2021/05/03 00:42:29;;;;;;;5.07;2.53;;;;;;;;;;5055341;28;20035;-81
2021/05/03 00:44:55;;;;;;;4.20;2.67;;;;;;;;;;5044851;28;20012;-82
2021/05/03 00:47:21;;;;;;;7.18;2.80;;;;;;;;;;5066030;28;20043;-82
2021/05/03 00:49:47;;;;;;;11.25;3.00;;;;;;;;;;5055344;28;20056;-82
2021/05/03 00:52:13;;;;;;;12.30;3.05;;;;;;;;;;5055238;28;20029;-82
2021/05/03 00:54:40;;;;;;;10.43;3.28;;;;;;;;;;5055371;28;20037;-82
2021/05/03 00:57:07;;;;;;;3.63;2.80;;;;;;;;;;5047111;28;20123;-81
2021/05/03 00:59:33;;;;;;;8.60;3.03;;;;;;;;;;5072362;28;20479;-82
2021/05/03 01:01:59;;;;;;;9.75;3.05;;;;;;;;;;5070678;28;20108;-82
2021/05/03 01:04:25;;;;;;;8.05;2.97;;;;;;;;;;5044663;28;20138;-82
2021/05/03 01:06:51;;;;;;;6.75;3.53;;;;;;;;;;5071900;28;20476;-82
2021/05/03 01:09:18;;;;;;;7.57;3.72;;;;;;;;;;5055468;28;20381;-82
2021/05/03 01:11:44;;;;;;;5.88;3.95;;;;;;;;;;5044818;28;20028;-82
2021/05/03 01:14:11;;;;;;;6.43;3.72;;;;;;;;;;5052603;28;20505;-82
2021/05/03 01:16:37;;;;;;;6.07;3.90;;;;;;;;;;5052458;28;20054;-82
2021/05/03 01:19:03;;;;;;;10.45;3.63;;;;;;;;;;5038258;28;20123;-82
2021/05/03 01:21:29;;;;;;;6.05;3.42;;;;;;;;;;5064431;28;20028;-82
2021/05/03 01:23:55;;;;;;;6.70;3.65;;;;;;;;;;5048185;28;20908;-82
2021/05/03 01:26:22;;;;;;;11.35;3.85;;;;;;;;;;5042484;28;20118;-82
2021/05/03 01:28:48;;;;;;;7.57;3.78;;;;;;;;;;5044300;28;20531;-82
2021/05/03 01:31:15;;;;;;;8.57;3.90;;;;;;;;;;5050100;28;20036;-82
2021/05/03 01:33:41;;;;;;;7.60;3.28;;;;;;;;;;5048141;28;20174;-82
2021/05/03 01:36:07;;;;;;;11.93;4.25;;;;;;;;;;5054157;28;20032;-82
2021/05/03 01:38:34;;;;;;;11.80;4.18;;;;;;;;;;5067233;28;20032;-82
2021/05/03 01:41:00;;;;;;;9.32;3.97;;;;;;;;;;5049965;28;20035;-82
2021/05/03 01:43:27;;;;;;;9.00;4.05;;;;;;;;;;5051735;28;20033;-82
2021/05/03 01:45:54;;;;;;;10.95;3.95;;;;;;;;;;5060955;28;20035;-82
2021/05/03 01:48:24;;;;;;;7.93;4.03;;;;;;;;;;5041209;28;20040;-82
2021/05/03 01:50:50;;;;;;;6.20;3.92;;;;;;;;;;5044413;28;20033;-82
2021/05/03 01:53:17;;;;;;;7.18;4.10;;;;;;;;;;5053583;28;20040;-82
2021/05/03 01:55:44;;;;;;;11.43;4.57;;;;;;;;;;5052898;28;20029;-82
2021/05/03 01:58:12;;;;;;;8.63;3.72;;;;;;;;;;5053360;28;20071;-82
2021/05/03 02:00:38;;;;;;;7.95;3.60;;;;;;;;;;5049680;28;20384;-82
2021/05/03 02:03:04;;;;;;;5.90;3.97;;;;;;;;;;5046920;28;20024;-82
2021/05/03 02:05:30;;;;;;;8.30;3.95;;;;;;;;;;5040349;28;20123;-82
2021/05/03 02:08:01;;;;;;;5.85;4.10;;;;;;;;;;5036626;28;20041;-82
2021/05/03 02:10:27;;;;;;;10.88;4.07;;;;;;;;;;5058054;28;20119;-82
2021/05/03 02:12:53;;;;;;;10.43;4.47;;;;;;;;;;5071376;28;20024;-82
2021/05/03 02:15:19;;;;;;;7.85;4.45;;;;;;;;;;5071539;28;20029;-83
2021/05/03 02:17:45;;;;;;;12.85;5.00;;;;;;;;;;5040369;28;20025;-82
2021/05/03 02:20:12;;;;;;;9.15;4.43;;;;;;;;;;5048931;28;20063;-82
2021/05/03 02:22:38;;;;;;;9.35;4.70;;;;;;;;;;5039215;28;20075;-82
2021/05/03 02:25:05;;;;;;;7.43;4.40;;;;;;;;;;5041763;28;20070;-82
2021/05/03 02:27:31;;;;;;;6.13;4.22;;;;;;;;;;5052528;28;20036;-82
2021/05/03 02:29:57;;;;;;;8.48;4.45;;;;;;;;;;5040733;28;20024;-82
2021/05/03 02:32:23;;;;;;;7.28;4.85;;;;;;;;;;5056741;28;20051;-82
2021/05/03 02:34:49;;;;;;;7.32;4.45;;;;;;;;;;5052974;28;20025;-82
2021/05/03 02:37:16;;;;;;;9.40;4.30;;;;;;;;;;5050323;28;20025;-82
2021/05/03 02:39:42;;;;;;;11.75;3.97;;;;;;;;;;5061311;28;20012;-82
2021/05/03 02:42:09;;;;;;;7.95;4.35;;;;;;;;;;5037551;28;20029;-82
2021/05/03 02:44:38;;;;;;;8.70;3.72;;;;;;;;;;5047555;28;20131;-82
2021/05/03 02:47:05;;;;;;;8.80;4.20;;;;;;;;;;5061844;28;20054;-82
2021/05/03 02:49:31;;;;;;;9.80;4.32;;;;;;;;;;5050859;28;20047;-82
2021/05/03 02:51:57;;;;;;;6.35;3.97;;;;;;;;;;5052887;28;20408;-82
2021/05/03 02:54:23;;;;;;;9.52;4.22;;;;;;;;;;5043473;28;20135;-82
2021/05/03 02:56:49;;;;;;;7.75;4.10;;;;;;;;;;5053056;28;20249;-82
2021/05/03 02:59:15;;;;;;;10.07;4.30;;;;;;;;;;5048627;28;20079;-82
2021/05/03 03:01:41;;;;;;;9.88;4.15;;;;;;;;;;5060649;28;20039;-82
2021/05/03 03:04:07;;;;;;;7.65;3.45;;;;;;;;;;5040162;28;20041;-82
2021/05/03 03:06:33;;;;;;;8.57;3.88;;;;;;;;;;5058290;28;20032;-82
2021/05/03 03:08:59;;;;;;;7.10;4.05;;;;;;;;;;5044387;28;20048;-82
2021/05/03 03:11:25;;;;;;;9.00;4.70;;;;;;;;;;5042865;28;20028;-82
2021/05/03 03:13:51;;;;;;;5.70;3.63;;;;;;;;;;5065304;28;20108;-82
2021/05/03 03:16:22;;;;;;;7.18;3.83;;;;;;;;;;5050887;28;20031;-82
2021/05/03 03:18:48;;;;;;;6.95;3.60;;;;;;;;;;5050246;28;20031;-82
2021/05/03 03:21:14;;;;;;;9.82;3.85;;;;;;;;;;5043190;28;20150;-82
2021/05/03 03:23:40;;;;;;;6.22;3.75;;;;;;;;;;5064975;28;20169;-82
2021/05/03 03:26:06;;;;;;;6.65;3.65;;;;;;;;;;5043401;28;20539;-82
2021/05/03 03:28:32;;;;;;;6.95;4.03;;;;;;;;;;5061632;28;20085;-82
2021/05/03 03:30:58;;;;;;;8.05;4.18;;;;;;;;;;5052468;28;20036;-83
2021/05/03 03:33:24;;;;;;;6.70;3.30;;;;;;;;;;5055555;28;20495;-82
2021/05/03 03:35:50;;;;;;;7.07;4.28;;;;;;;;;;5047369;28;20075;-82
2021/05/03 03:38:16;;;;;;;6.90;3.53;;;;;;;;;;5043434;28;20028;-82
2021/05/03 03:40:44;;;;;;;7.30;3.72;;;;;;;;;;5053729;28;20028;-82
2021/05/03 03:43:09;;;;;;;8.15;3.78;;;;;;;;;;5048171;28;20393;-82
2021/05/03 03:45:35;;;;;;;7.90;3.97;;;;;;;;;;5048070;28;20040;-82
2021/05/03 03:48:02;;;;;;;7.20;3.90;;;;;;;;;;5048583;28;20460;-82
2021/05/03 03:50:27;;;;;;;9.35;4.38;;;;;;;;;;5060702;28;20502;-82
2021/05/03 03:52:53;;;;;;;6.88;3.92;;;;;;;;;;5056386;28;20036;-82
2021/05/03 03:55:19;;;;;;;6.88;4.00;;;;;;;;;;5061732;28;20028;-82
2021/05/03 03:57:45;;;;;;;8.40;3.97;;;;;;;;;;5051116;28;20035;-82
2021/05/03 04:00:12;;;;;;;13.13;4.55;;;;;;;;;;5043205;28;20123;-82
2021/05/03 04:02:38;;;;;;;8.73;3.83;;;;;;;;;;5046766;28;20021;-82
2021/05/03 04:05:15;;;;;;;7.22;3.53;;;;;;;;;;5057934;28;20135;-83
2021/05/03 04:11:11;;;;;;;11.23;3.97;;;;;;;;;;5001028;28;20042;-80
2021/05/03 04:24:26;;;;;;;5.40;3.53;;;;;;;;;;5069170;28;20032;-85
2021/05/03 04:26:52;;;;;;;6.53;3.38;;;;;;;;;;5044994;28;20396;-84
2021/05/03 04:29:18;;;;;;;7.05;3.63;;;;;;;;;;5055734;28;20027;-84
2021/05/03 04:31:44;;;;;;;5.55;3.63;;;;;;;;;;5055499;28;20440;-84
2021/05/03 04:34:09;;;;;;;7.43;3.42;;;;;;;;;;5055831;28;20024;-84
2021/05/03 04:36:36;;;;;;;8.27;3.80;;;;;;;;;;5044837;28;20025;-86
2021/05/03 04:39:02;;;;;;;7.32;3.70;;;;;;;;;;5069044;28;20100;-85
2021/05/03 04:41:28;;;;;;;6.30;3.40;;;;;;;;;;5069458;28;20103;-84
2021/05/03 04:43:53;;;;;;;4.93;3.40;;;;;;;;;;5055387;28;20021;-85
2021/05/03 04:46:19;;;;;;;12.10;3.90;;;;;;;;;;5056248;28;20031;-84
2021/05/03 04:48:47;;;;;;;10.02;3.45;;;;;;;;;;5049863;28;20095;-84
2021/05/03 04:51:13;;;;;;;6.38;3.67;;;;;;;;;;5066671;28;20078;-83
2021/05/03 04:53:39;;;;;;;8.63;3.58;;;;;;;;;;5065179;28;20357;-85
2021/05/03 04:56:05;;;;;;;7.68;3.50;;;;;;;;;;5050906;28;20017;-83
2021/05/03 04:58:31;;;;;;;6.55;3.40;;;;;;;;;;5066300;28;20146;-84
2021/05/03 05:00:57;;;;;;;6.50;3.85;;;;;;;;;;5070875;28;20476;-84
2021/05/03 05:03:23;;;;;;;6.13;3.47;;;;;;;;;;5054275;28;20036;-84
2021/05/03 05:05:51;;;;;;;15.15;3.33;;;;;;;;;;5055489;28;20270;-84
2021/05/03 05:08:18;;;;;;;6.03;3.47;;;;;;;;;;5040635;28;20068;-83
2021/05/03 05:10:44;;;;;;;9.23;4.00;;;;;;;;;;5063790;28;20020;-83
2021/05/03 05:13:10;;;;;;;4.95;3.60;;;;;;;;;;5057881;28;20036;-84
2021/05/03 05:15:36;;;;;;;6.93;3.30;;;;;;;;;;5066681;28;20054;-83
2021/05/03 05:18:02;;;;;;;4.88;3.05;;;;;;;;;;5047189;28;20032;-84
2021/05/03 05:20:28;;;;;;;7.68;4.03;;;;;;;;;;5050027;28;20033;-83
2021/05/03 05:22:54;;;;;;;6.40;3.78;;;;;;;;;;5050848;28;20102;-86
2021/05/03 05:25:20;;;;;;;6.35;3.47;;;;;;;;;;5070219;28;20488;-84
2021/05/03 05:27:46;;;;;;;8.70;3.95;;;;;;;;;;5065909;28;20543;-84
2021/05/03 05:30:12;;;;;;;7.43;3.65;;;;;;;;;;5051895;28;20064;-83
2021/05/03 05:32:40;;;;;;;10.35;3.53;;;;;;;;;;5049877;28;20119;-86
2021/05/03 05:35:06;;;;;;;12.20;3.88;;;;;;;;;;5053623;28;20127;-83
2021/05/03 05:37:32;;;;;;;6.70;3.85;;;;;;;;;;5058260;28;20021;-83
2021/05/03 05:39:58;;;;;;;6.88;3.97;;;;;;;;;;5057245;28;20036;-83
2021/05/03 05:42:24;;;;;;;7.45;3.85;;;;;;;;;;5074518;28;20035;-83
2021/05/03 05:44:50;;;;;;;7.85;3.75;;;;;;;;;;5047504;28;20021;-83
2021/05/03 05:47:16;;;;;;;10.32;3.92;;;;;;;;;;5051863;28;20035;-83
2021/05/03 05:49:42;;;;;;;7.88;4.32;;;;;;;;;;5062298;28;20535;-83
2021/05/03 05:52:08;;;;;;;7.45;3.65;;;;;;;;;;5052906;28;20039;-83
2021/05/03 05:54:34;;;;;;;10.32;4.05;;;;;;;;;;5052362;28;20033;-83
2021/05/03 05:57:00;;;;;;;6.40;3.35;;;;;;;;;;5056712;28;20016;-83
2021/05/03 05:59:26;;;;;;;6.90;3.67;;;;;;;;;;5080725;28;20029;-83
2021/05/03 06:01:52;;;;;;;7.10;3.78;;;;;;;;;;5060414;28;20166;-83
2021/05/03 06:04:18;;;;;;;6.55;3.10;;;;;;;;;;5064654;28;20032;-84
2021/05/03 06:06:44;;;;;;;11.13;3.53;;;;;;;;;;5048873;28;20562;-84
2021/05/03 06:09:10;;;;;;;6.07;3.22;;;;;;;;;;5058896;28;20084;-84
2021/05/03 06:11:36;;;;;;;4.57;3.00;;;;;;;;;;5047097;28;20028;-84
2021/05/03 06:14:02;;;;;;;4.93;3.45;;;;;;;;;;5062076;28;20491;-83
2021/05/03 06:16:28;;;;;;;6.72;3.45;;;;;;;;;;5074474;28;20074;-84
2021/05/03 06:18:55;;;;;;;5.85;3.03;;;;;;;;;;5056796;28;20381;-85
2021/05/03 06:21:21;;;;;;;4.78;3.33;;;;;;;;;;5075487;28;20021;-85
2021/05/03 06:23:47;;;;;;;5.82;3.20;;;;;;;;;;5072072;28;20040;-84
2021/05/03 06:26:13;;;;;;;5.90;3.03;;;;;;;;;;5047144;28;20032;-84
2021/05/03 06:28:42;;;;;;;7.10;3.50;;;;;;;;;;5058418;28;20392;-84
2021/05/03 06:31:08;;;;;;;6.85;3.22;;;;;;;;;;5077500;28;20074;-84
2021/05/03 06:33:34;;;;;;;4.53;2.47;;;;;;;;;;5057023;28;20032;-85
2021/05/03 06:36:00;;;;;;;5.63;3.05;;;;;;;;;;5047909;28;20024;-83
2021/05/03 06:38:26;;;;;;;5.78;2.72;;;;;;;;;;5071337;28;20043;-83
2021/05/03 06:40:52;;;;;;;5.50;2.92;;;;;;;;;;5040604;28;20032;-83
2021/05/03 06:43:19;;;;;;;8.00;2.88;;;;;;;;;;5075625;28;20028;-83
2021/05/03 06:45:45;;;;;;;7.13;2.75;;;;;;;;;;5053287;28;20036;-83
2021/05/03 06:48:12;;;;;;;3.85;2.67;;;;;;;;;;5057435;28;20060;-83
2021/05/03 06:50:41;;;;;;;3.83;2.60;;;;;;;;;;5057928;28;20043;-83
2021/05/03 06:53:07;;;;;;;7.13;2.58;;;;;;;;;;5061448;28;20031;-83
2021/05/03 06:55:33;;;;;;;4.40;2.83;;;;;;;;;;5062613;28;20029;-83
2021/05/03 06:57:59;;;;;;;6.93;3.10;;;;;;;;;;5057701;28;20124;-83
2021/05/03 07:00:25;;;;;;;10.23;3.53;;;;;;;;;;5057432;28;20063;-83
2021/05/03 07:02:52;;;;;;;6.72;2.85;;;;;;;;;;5045588;28;20032;-83
2021/05/03 07:05:18;;;;;;;7.97;3.08;;;;;;;;;;5055084;28;20037;-83
2021/05/03 07:07:44;;;;;;;5.30;2.78;;;;;;;;;;5058112;28;20237;-83
2021/05/03 07:10:11;;;;;;;11.85;2.80;;;;;;;;;;5058235;28;20139;-83
2021/05/03 07:12:43;;;;;;;4.22;2.88;;;;;;;;;;5057097;28;20480;-83
2021/05/03 07:15:10;;;;;;;6.53;2.58;;;;;;;;;;5058367;28;20044;-83
2021/05/03 07:17:36;;;;;;;7.10;2.58;;;;;;;;;;5056980;28;20024;-83
2021/05/03 07:20:04;;;;;;;8.40;2.58;;;;;;;;;;5057947;28;20525;-83
2021/05/03 07:22:30;;;;;;;4.63;2.47;;;;;;;;;;5056329;28;20025;-83
2021/05/03 07:24:56;;;;;;;6.07;2.78;;;;;;;;;;5048590;28;20036;-83
2021/05/03 07:27:22;;;;;;;7.75;2.78;;;;;;;;;;5054253;28;20082;-85
2021/05/03 07:29:48;;;;;;;7.85;2.72;;;;;;;;;;5071845;28;20033;-85
2021/05/03 07:32:14;;;;;;;3.83;2.67;;;;;;;;;;5052905;28;20043;-84
2021/05/03 07:34:40;;;;;;;6.60;2.72;;;;;;;;;;5071275;28;20028;-85
2021/05/03 07:37:06;;;;;;;5.60;2.45;;;;;;;;;;5057886;28;20043;-85
2021/05/03 07:39:33;;;;;;;7.88;2.55;;;;;;;;;;5039525;28;20048;-85
2021/05/03 07:41:59;;;;;;;5.13;2.45;;;;;;;;;;5052397;28;20021;-85
2021/05/03 07:44:26;;;;;;;6.05;2.42;;;;;;;;;;5052230;28;20036;-85
2021/05/03 07:46:52;;;;;;;3.85;2.08;;;;;;;;;;5053680;28;20032;-85
2021/05/03 07:49:18;;;;;;;6.32;2.63;;;;;;;;;;5050338;28;20036;-85
2021/05/03 07:51:44;;;;;;;6.25;2.40;;;;;;;;;;5076378;28;20024;-85
2021/05/03 07:54:10;;;;;;;5.22;1.88;;;;;;;;;;5050483;28;20041;-85
2021/05/03 07:56:36;;;;;;;3.15;2.35;;;;;;;;;;5052349;28;20103;-85
2021/05/03 07:59:03;;;;;;;3.67;1.92;;;;;;;;;;5066544;28;20128;-86
2021/05/03 08:01:29;;;;;;;2.90;1.90;;;;;;;;;;5058783;28;20123;-84
2021/05/03 08:03:55;;;;;;;5.53;2.17;;;;;;;;;;5055646;28;20075;-85
2021/05/03 08:06:22;;;;;;;4.60;2.42;;;;;;;;;;5056200;28;20479;-84
2021/05/03 08:08:49;;;;;;;5.35;2.10;;;;;;;;;;5056206;28;20044;-85
2021/05/03 08:11:16;;;;;;;5.72;2.28;;;;;;;;;;5049895;28;20040;-85
2021/05/03 08:13:43;;;;;;;4.72;1.88;;;;;;;;;;5052173;28;20029;-85
2021/05/03 08:16:15;;;;;;;3.50;2.15;;;;;;;;;;5047506;28;20499;-85
2021/05/03 08:18:41;;;;;;;6.82;1.98;;;;;;;;;;5052792;28;20364;-85
2021/05/03 08:21:07;;;;;;;3.47;1.60;;;;;;;;;;5056091;28;20020;-85
2021/05/03 08:23:33;;;;;;;4.53;1.85;;;;;;;;;;5057299;28;20032;-85
2021/05/03 08:26:00;;;;;;;3.03;1.90;;;;;;;;;;5071208;28;20028;-85
2021/05/03 08:28:26;;;;;;;2.28;1.60;;;;;;;;;;5070089;28;20078;-85
2021/05/03 08:30:52;;;;;;;4.50;1.42;;;;;;;;;;5076600;28;20028;-85
2021/05/03 08:33:19;;;;;;;3.38;1.60;;;;;;;;;;5058805;28;20020;-85
2021/05/03 08:35:45;;;;;;;5.50;1.60;;;;;;;;;;5059020;28;20031;-85
2021/05/03 08:38:12;;;;;;;6.07;1.63;;;;;;;;;;5059364;28;20437;-86
2021/05/03 08:40:38;;;;;;;5.82;1.60;;;;;;;;;;5058041;28;20097;-85
2021/05/03 08:43:05;;;;;;;4.47;1.55;;;;;;;;;;5046689;28;20066;-85
2021/05/03 08:45:31;;;;;;;2.28;1.08;;;;;;;;;;5075562;28;20054;-85
2021/05/03 08:48:06;;;;;;;2.28;1.17;;;;;;;;;;5059400;28;20369;-85
2021/05/03 08:53:30;;;;;;;3.05;1.00;;;;;;;;;;5065944;28;20054;-85
2021/05/03 08:55:56;;;;;;;2.08;1.15;;;;;;;;;;5050428;28;20025;-86
2021/05/03 08:58:22;;;;;;;3.10;1.23;;;;;;;;;;5054806;28;20035;-85
2021/05/03 09:00:49;;;;;;;2.55;1.00;;;;;;;;;;5078194;28;20096;-85
2021/05/03 09:03:15;;;;;;;6.35;1.48;;;;;;;;;;5059683;28;20055;-85
2021/05/03 09:05:42;;;;;;;3.03;1.60;;;;;;;;;;5057564;28;20049;-85
2021/05/03 09:08:09;;;;;;;3.25;1.17;;;;;;;;;;5053050;28;20061;-85
2021/05/03 09:10:43;;;;;;;1.52;1.00;;;;;;;;;;5052029;28;20057;-85
2021/05/03 09:13:10;;;;;;;2.10;1.20;;;;;;;;;;5056844;28;20061;-85
2021/05/03 09:15:37;;;;;;;1.70;1.10;;;;;;;;;;5038791;28;20055;-85
2021/05/03 09:18:04;;;;;;;3.65;0.90;;;;;;;;;;5072508;28;20124;-84
2021/05/03 09:20:30;;;;;;;1.75;1.10;;;;;;;;;;5054003;28;20634;-85
2021/05/03 09:25:46;;;;;;;2.17;1.10;;;;;;;;;;5071417;28;20053;-84
2021/05/03 09:28:12;;;;;;;;;;;;;;;;;;5069653;28;20032;-85
2021/05/03 09:30:43;;;;;;;2.53;1.40;;;;;;;;;;5054562;28;20357;-85
2021/05/03 09:33:18;;;;;;;1.80;0.98;;;;;;;;;;5073348;28;20063;-85
2021/05/03 09:35:45;;;;;;;2.92;1.20;;;;;;;;;;5056835;28;20035;-84
2021/05/03 09:38:27;;;;;;;1.63;0.90;;;;;;;;;;5057222;28;20464;-85
2021/05/03 09:41:09;;;;;;;4.32;1.00;;;;;;;;;;5040285;28;20074;-85
2021/05/03 09:43:35;;;;;;;1.85;0.98;;;;;;;;;;5068926;28;20032;-84
2021/05/03 09:46:01;;;;;;;4.82;1.25;;;;;;;;;;5040324;28;20125;-85
2021/05/03 09:48:27;;;;;;;1.30;0.90;;;;;;;;;;5057219;28;20388;-85
2021/05/03 09:50:53;;;;;;;2.47;0.85;;;;;;;;;;5072846;28;20111;-85
2021/05/03 09:53:19;;;;;;;2.20;0.98;;;;;;;;;;5073832;28;20432;-85
2021/05/03 09:55:52;;;;;;;2.55;1.13;;;;;;;;;;5069988;28;20028;-85
2021/05/03 09:58:22;;;;;;;1.92;0.90;;;;;;;;;;5059863;28;20157;-85
2021/05/03 10:00:49;;;;;;;1.15;0.73;;;;;;;;;;5092066;28;20016;-85
2021/05/03 10:03:36;;;;;;;3.47;1.00;;;;;;;;;;5071759;28;20105;-85
2021/05/03 10:06:03;;;;;;;5.95;1.00;;;;;;;;;;5057285;28;20024;-85
2021/05/03 10:08:29;;;;;;;1.52;0.85;;;;;;;;;;5054232;28;20524;-85
2021/05/03 10:10:59;;;;;;;1.23;0.73;;;;;;;;;;5052366;28;20029;-85
2021/05/03 10:13:26;;;;;;;3.03;1.00;;;;;;;;;;5069557;28;20033;-85
2021/05/03 10:15:55;;;;;;;2.40;0.90;;;;;;;;;;5049215;28;20036;-85
2021/05/03 10:18:21;;;;;;;3.45;0.88;;;;;;;;;;5056706;28;20028;-85
2021/05/03 10:20:47;;;;;;;1.13;0.77;;;;;;;;;;5074019;28;20044;-84
2021/05/03 10:23:14;;;;;;;3.90;0.88;;;;;;;;;;5063468;28;20025;-85
2021/05/03 10:25:43;;;;;;;2.28;0.70;;;;;;;;;;5068438;28;20060;-84
2021/05/03 10:28:09;;;;;;;1.27;0.80;;;;;;;;;;5056984;28;20028;-85
2021/05/03 10:30:43;;;;;;;2.97;0.80;;;;;;;;;;5078396;28;20056;-85
2021/05/03 10:33:11;;;;;;;1.08;0.70;;;;;;;;;;5053988;28;20541;-85
2021/05/03 10:35:40;;;;;;;1.45;0.63;;;;;;;;;;5040080;28;20179;-85
2021/05/03 10:38:08;;;;;;;1.95;0.68;;;;;;;;;;5052561;28;20024;-85
2021/05/03 10:40:34;;;;;;;1.55;0.60;;;;;;;;;;5053276;28;20036;-85
2021/05/03 10:43:04;;;;;;;2.15;0.57;;;;;;;;;;5047988;28;20479;-86
2021/05/03 10:48:42;;;;;;;2.03;0.60;;;;;;;;;;5062387;28;20082;-85
2021/05/03 10:51:11;;;;;;;1.92;0.52;;;;;;;;;;5050229;28;20186;-85
2021/05/03 10:53:43;;;;;;;1.50;0.80;;;;;;;;;;5058068;28;20021;-84
2021/05/03 10:56:12;;;;;;;3.05;0.98;;;;;;;;;;5059100;28;20052;-85
2021/05/03 10:58:57;;;;;;;2.65;0.70;;;;;;;;;;5049174;28;20119;-85
2021/05/03 11:01:23;;;;;;;1.38;0.88;;;;;;;;;;5047407;28;20021;-86
2021/05/03 11:03:55;;;;;;;1.58;0.80;;;;;;;;;;5050137;28;20025;-86
2021/05/03 11:06:39;;;;;;;2.63;0.73;;;;;;;;;;5072300;28;20043;-85
2021/05/03 11:09:24;;;;;;;1.25;0.70;;;;;;;;;;5063251;28;20104;-86
2021/05/03 11:11:50;;;;;;;2.20;0.70;;;;;;;;;;5064105;28;20056;-86
2021/05/03 11:14:19;;;;;;;4.05;0.73;;;;;;;;;;5047871;28;20123;-85
2021/05/03 11:16:46;;;;;;;2.80;0.77;;;;;;;;;;5055564;28;20028;-86
2021/05/03 11:20:16;;;;;;;0.52;0.52;;;;;;;;;;5044116;28;20032;-85
2021/05/03 11:22:22;;;;;;;1.63;0.70;;;;;;;;;;5067543;28;20477;-85
2021/05/03 11:27:28;;;;;;;2.08;0.70;;;;;;;;;;5076209;28;20032;-85
2021/05/03 11:30:06;;;;;;;0.98;0.63;;;;;;;;;;5057436;28;20369;-85
2021/05/03 11:32:37;;;;;;;3.05;0.68;;;;;;;;;;5058584;28;20051;-84
2021/05/03 11:37:44;;;;;;;1.73;0.70;;;;;;;;;;5072670;28;20117;-85
2021/05/03 11:43:13;;;;;;;2.35;0.60;;;;;;;;;;5074328;28;20860;-85
2021/05/03 11:45:39;;;;;;;2.03;0.63;;;;;;;;;;5049894;28;20020;-83
2021/05/03 11:48:05;;;;;;;1.67;0.50;;;;;;;;;;5070258;28;20028;-85
2021/05/03 11:50:32;;;;;;;2.08;0.90;;;;;;;;;;5059018;28;20407;-85
2021/05/03 11:52:57;;;;;;;2.30;0.80;;;;;;;;;;5053598;28;20120;-84
2021/05/03 11:55:25;;;;;;;1.70;0.50;;;;;;;;;;5059805;28;20020;-85
2021/05/03 11:57:51;;;;;;;3.83;0.60;;;;;;;;;;5059654;28;20111;-85
2021/05/03 12:00:19;;;;;;;3.15;0.70;;;;;;;;;;5059065;28;20482;-85
2021/05/03 12:02:45;;;;;;;1.70;0.60;;;;;;;;;;5067023;28;20016;-85
2021/05/03 12:05:17;;;;;;;1.70;0.50;;;;;;;;;;5061143;28;20081;-84
2021/05/03 12:07:43;;;;;;;3.10;0.60;;;;;;;;;;5060892;28;20086;-84
2021/05/03 12:10:14;;;;;;;1.90;0.80;;;;;;;;;;5049849;28;20033;-84
2021/05/03 12:12:45;;;;;;;1.20;0.90;;;;;;;;;;5053587;28;20025;-84
2021/05/03 12:15:19;;;;;;;2.58;0.70;;;;;;;;;;5059290;28;20025;-84
2021/05/03 12:17:45;;;;;;;1.38;0.85;;;;;;;;;;5061579;28;20506;-84
2021/05/03 12:20:11;;;;;;;3.10;1.10;;;;;;;;;;5060111;28;20115;-85
2021/05/03 12:22:38;;;;;;;2.28;0.80;;;;;;;;;;5075119;28;20017;-84
2021/05/03 12:25:09;;;;;;;3.03;1.02;;;;;;;;;;5077482;28;20028;-85
2021/05/03 12:27:36;;;;;;;2.20;1.05;;;;;;;;;;5058941;28;20052;-85
2021/05/03 12:30:04;;;;;;;3.03;1.20;;;;;;;;;;5058100;28;20029;-85
2021/05/03 12:32:34;;;;;;;1.88;1.10;;;;;;;;;;5058301;28;20127;-85
2021/05/03 12:35:05;;;;;;;1.10;0.75;;;;;;;;;;5078106;28;20028;-84
2021/05/03 12:37:31;;;;;;;3.10;0.98;;;;;;;;;;5070487;28;20045;-84
2021/05/03 12:40:10;;;;;;;3.63;1.40;;;;;;;;;;5050387;28;20111;-85
2021/05/03 12:42:38;;;;;;;1.65;1.02;;;;;;;;;;5056305;28;20041;-85
2021/05/03 12:45:30;;;;;;;2.20;1.17;;;;;;;;;;5077347;28;20086;-85
2021/05/03 12:48:10;;;;;;;1.70;1.10;;;;;;;;;;5078158;28;20052;-85
2021/05/03 12:53:33;;;;;;;5.35;1.27;;;;;;;;;;5073173;28;20071;-84
2021/05/03 12:56:13;;;;;;;2.38;1.20;;;;;;;;;;5071607;28;20399;-85
2021/05/03 12:58:55;;;;;;;2.95;1.48;;;;;;;;;;5050320;28;20021;-85
2021/05/03 13:04:34;;;;;;;3.80;1.70;;;;;;;;;;5072567;28;20035;-85
2021/05/03 13:10:24;;;;;;;3.30;1.75;;;;;;;;;;5023494;28;20052;-84
2021/05/03 13:24:23;;;;;;;4.13;1.73;;;;;;;;;;5075335;28;20384;-84
2021/05/03 13:29:35;;;;;;;7.10;2.83;;;;;;;;;;5073749;28;20098;-84
2021/05/03 13:32:00;;;;;;;5.00;3.30;;;;;;;;;;5065767;28;20056;-84
2021/05/03 13:34:26;;;;;;;4.50;3.55;;;;;;;;;;5050396;28;20082;-84
2021/05/03 13:36:52;;;;;;;6.00;3.00;;;;;;;;;;5054458;28;20028;-84
2021/05/03 13:39:18;;;;;;;5.72;3.40;;;;;;;;;;5047367;28;20017;-84
2021/05/03 13:41:45;;;;;;;4.07;3.33;;;;;;;;;;5048369;28;20016;-84
2021/05/03 13:44:12;;;;;;;4.35;3.20;;;;;;;;;;5055735;28;20276;-84
2021/05/03 13:46:40;;;;;;;4.65;3.45;;;;;;;;;;5052163;28;20123;-85
2021/05/03 13:49:06;;;;;;;4.97;2.97;;;;;;;;;;5051646;28;20357;-85
2021/05/03 13:51:32;;;;;;;8.02;3.30;;;;;;;;;;5074899;28;20037;-84
2021/05/03 13:53:59;;;;;;;4.47;3.28;;;;;;;;;;5054731;28;20029;-84
2021/05/03 13:56:25;;;;;;;4.38;3.10;;;;;;;;;;5052010;28;20021;-84
2021/05/03 13:58:51;;;;;;;6.22;3.17;;;;;;;;;;5070154;28;20048;-85
2021/05/03 14:01:17;;;;;;;4.50;3.28;;;;;;;;;;5049722;28;20024;-85
2021/05/03 14:03:43;;;;;;;8.57;3.53;;;;;;;;;;5055360;28;20021;-84
2021/05/03 14:06:11;;;;;;;6.72;3.50;;;;;;;;;;5050500;28;20044;-84
2021/05/03 14:08:37;;;;;;;4.07;2.92;;;;;;;;;;5057169;28;20374;-84
2021/05/03 14:11:06;;;;;;;4.72;3.38;;;;;;;;;;5044009;28;20306;-84
2021/05/03 14:13:32;;;;;;;4.47;3.30;;;;;;;;;;5067470;28;20454;-84
2021/05/03 14:15:58;;;;;;;4.82;3.28;;;;;;;;;;5053233;28;20049;-84
2021/05/03 14:18:24;;;;;;;4.85;3.42;;;;;;;;;;5053150;28;20077;-84
2021/05/03 14:20:51;;;;;;;6.40;3.33;;;;;;;;;;5049121;28;20028;-84
2021/05/03 14:23:17;;;;;;;3.88;3.03;;;;;;;;;;5057652;28;20028;-85
2021/05/03 14:25:44;;;;;;;4.00;2.88;;;;;;;;;;5046925;28;20028;-85
2021/05/03 14:28:16;;;;;;;5.65;2.85;;;;;;;;;;5047077;28;20082;-85
2021/05/03 14:30:48;;;;;;;6.35;3.17;;;;;;;;;;5070146;28;20029;-86
2021/05/03 14:33:22;;;;;;;7.30;3.40;;;;;;;;;;5048180;28;20028;-86
2021/05/03 14:35:49;;;;;;;5.70;3.20;;;;;;;;;;5065500;28;20479;-86
2021/05/03 14:38:15;;;;;;;4.85;3.38;;;;;;;;;;5043925;28;20063;-86
2021/05/03 14:40:42;;;;;;;3.70;3.10;;;;;;;;;;5040659;28;20078;-86
2021/05/03 14:43:09;;;;;;;4.38;3.28;;;;;;;;;;5044091;28;20107;-86
2021/05/03 14:46:00;;;;;;;5.28;3.20;;;;;;;;;;5064654;28;20029;-86
2021/05/03 14:56:15;;;;;;;5.75;2.80;;;;;;;;;;4996056;28;20058;-86
2021/05/03 14:58:41;;;;;;;3.13;2.50;;;;;;;;;;5070517;28;20131;-86
2021/05/03 15:01:07;;;;;;;3.28;2.63;;;;;;;;;;5053539;28;20095;-86
2021/05/03 15:03:33;;;;;;;4.97;2.60;;;;;;;;;;5054077;28;20139;-86
2021/05/03 15:06:01;;;;;;;5.80;3.05;;;;;;;;;;5052982;28;20016;-86
2021/05/03 15:08:28;;;;;;;4.95;2.85;;;;;;;;;;5053898;28;20090;-86
2021/05/03 15:10:54;;;;;;;4.10;2.72;;;;;;;;;;5049124;28;20074;-86
2021/05/03 15:13:35;;;;;;;8.68;3.20;;;;;;;;;;5041478;28;20035;-86
2021/05/03 15:16:33;;;;;;;4.88;2.83;;;;;;;;;;5049306;28;20029;-86
2021/05/03 15:21:35;;;;;;;4.97;2.65;;;;;;;;;;5052051;28;20503;-86
2021/05/03 15:24:04;;;;;;;4.45;2.80;;;;;;;;;;5050692;28;20021;-85
2021/05/03 15:26:32;;;;;;;4.97;2.90;;;;;;;;;;5047896;28;20017;-85
2021/05/03 15:29:14;;;;;;;4.10;2.70;;;;;;;;;;5047530;28;20018;-85
2021/05/03 15:34:06;;;;;;;3.08;2.00;;;;;;;;;;5047802;28;20033;-85
2021/05/03 15:36:32;;;;;;;4.07;2.22;;;;;;;;;;5050850;28;20429;-85
2021/05/03 15:38:58;;;;;;;5.65;2.30;;;;;;;;;;5051672;28;20020;-85
2021/05/03 15:41:24;;;;;;;4.00;1.92;;;;;;;;;;5053364;28;20029;-85
2021/05/03 15:43:51;;;;;;;8.18;2.80;;;;;;;;;;5057129;28;20419;-85
2021/05/03 15:46:17;;;;;;;3.80;2.45;;;;;;;;;;5048281;28;20445;-85
2021/05/03 15:48:43;;;;;;;6.35;2.83;;;;;;;;;;5059976;28;20029;-85
2021/05/03 15:51:10;;;;;;;6.47;2.60;;;;;;;;;;5044128;28;20026;-85
2021/05/03 15:53:37;;;;;;;3.90;2.83;;;;;;;;;;5047615;28;20109;-85